PH-0113 weather

CLOSED Mabalacat East Airfield (Kamikaze East)
Mabalacat, Pampanga Province, Philippines

Public forecast

Using degrees Celsius for public forecast. Weather courtesy of forecast.io.

METAR (pilot weather report)

Closest report is Diosdado Macapagal International Airport, 3.4 nm (6.3 km) SSW. Retrieved 2019/07/20 05:00 UTC (9 minutes ago):

RPLC 200500Z 01004KT 4000 -RA SCT018 BKN090 30/27 Q1010 RMK A2983

TAF (pilot weather forecast)

Forecast is more than 12 hours old.

Closest forecast is Diosdado Macapagal International Airport, 3.4 nm (6.3 km) SSW. Retrieved 2019/07/19 00:03 UTC (1 day ago):

TAF RPLC 192300Z 2000/2106 18008KT 9999 SCT020 BKN100 TX32/2006Z TN25/2021Z TEMPO 2000/2006 22012KT 7000 -SHRA SCT018 BKN090